WAT230 KLAS-CYWG
Flight info
| Callsign | WAT230 |
|---|---|
| Flight time | 2h 51m |
| Altitude | 37000 |
| Route | GIDGT3 TUKRR DCT LAR DCT DPR DCT LITNA PEPNO5 |
| Aircraft | B738/M-SDE2E3FGHIRWXY/LB1 |
Departure
| Time | 2026-05-03 23:38 |
|---|---|
| Airport | Harry Reid International Airport (KLAS) |
Arrival
| Time | 2026-05-04 02:29 |
|---|---|
| Airport | Winnipeg / James Armstrong Richardson International Airport (CYWG) |
| Time | Latitude | Longitude | Altitude | Speed | Heading |
|---|---|---|---|---|---|
| 2026-05-03 23:01 | 36.07996 | -115.13573 | 2091 ft | 0 kts | 42° |
| 2026-05-03 23:27 | 36.07987 | -115.13584 | 2091 ft | 4 kts | 42° |
| 2026-05-03 23:27 | 36.07967 | -115.13606 | 2091 ft | 4 kts | 42° |
| 2026-05-03 23:27 | 36.07950 | -115.13624 | 2091 ft | 4 kts | 45° |
| 2026-05-03 23:28 | 36.07941 | -115.13646 | 2091 ft | 4 kts | 117° |
| 2026-05-03 23:28 | 36.07957 | -115.13669 | 2091 ft | 4 kts | 135° |
| 2026-05-03 23:28 | 36.07960 | -115.13673 | 2091 ft | 1 kts | 135° |
| 2026-05-03 23:31 | 36.07957 | -115.13670 | 2091 ft | 1 kts | 135° |
| 2026-05-03 23:31 | 36.07952 | -115.13663 | 2091 ft | 0 kts | 134° |
| 2026-05-03 23:32 | 36.07938 | -115.13645 | 2091 ft | 5 kts | 135° |
| 2026-05-03 23:32 | 36.07905 | -115.13605 | 2091 ft | 8 kts | 137° |
| 2026-05-03 23:32 | 36.07847 | -115.13589 | 2091 ft | 9 kts | 202° |
| 2026-05-03 23:32 | 36.07828 | -115.13664 | 2091 ft | 10 kts | 269° |
| 2026-05-03 23:33 | 36.07821 | -115.13756 | 2092 ft | 11 kts | 245° |
| 2026-05-03 23:33 | 36.07759 | -115.13767 | 2092 ft | 11 kts | 121° |
| 2026-05-03 23:33 | 36.07754 | -115.13669 | 2091 ft | 12 kts | 90° |
| 2026-05-03 23:33 | 36.07754 | -115.13559 | 2091 ft | 14 kts | 90° |
| 2026-05-03 23:34 | 36.07753 | -115.13429 | 2089 ft | 16 kts | 91° |
| 2026-05-03 23:34 | 36.07752 | -115.13277 | 2086 ft | 19 kts | 90° |
| 2026-05-03 23:34 | 36.07753 | -115.13094 | 2081 ft | 23 kts | 89° |
| 2026-05-03 23:34 | 36.07755 | -115.12875 | 2071 ft | 27 kts | 90° |
| 2026-05-03 23:35 | 36.07756 | -115.12634 | 2062 ft | 29 kts | 90° |
| 2026-05-03 23:35 | 36.07756 | -115.12388 | 2055 ft | 24 kts | 91° |
| 2026-05-03 23:35 | 36.07757 | -115.12230 | 2050 ft | 11 kts | 90° |
| 2026-05-03 23:35 | 36.07751 | -115.12160 | 2048 ft | 7 kts | 112° |
| 2026-05-03 23:36 | 36.07710 | -115.12126 | 2048 ft | 8 kts | 171° |
| 2026-05-03 23:36 | 36.07659 | -115.12128 | 2049 ft | 7 kts | 197° |
| 2026-05-03 23:36 | 36.07643 | -115.12182 | 2048 ft | 7 kts | 270° |
| 2026-05-03 23:36 | 36.07643 | -115.12216 | 2049 ft | 2 kts | 270° |
| 2026-05-03 23:37 | 36.07643 | -115.12226 | 2049 ft | 0 kts | 269° |
| 2026-05-03 23:37 | 36.07643 | -115.12312 | 2051 ft | 37 kts | 270° |
| 2026-05-03 23:37 | 36.07642 | -115.12916 | 2073 ft | 102 kts | 270° |
| 2026-05-03 23:37 | 36.07639 | -115.14039 | 2094 ft | 158 kts | 269° |
| 2026-05-03 23:38 | 36.07666 | -115.15504 | 2503 ft | 176 kts | 266° |
| 2026-05-03 23:38 | 36.07701 | -115.17044 | 3191 ft | 187 kts | 264° |
| 2026-05-03 23:38 | 36.07694 | -115.18675 | 3862 ft | 194 kts | 263° |
| 2026-05-03 23:38 | 36.07670 | -115.20440 | 4173 ft | 216 kts | 263° |
| 2026-05-03 23:39 | 36.07653 | -115.22369 | 4616 ft | 226 kts | 263° |
| 2026-05-03 23:39 | 36.07647 | -115.24318 | 5267 ft | 227 kts | 264° |
| 2026-05-03 23:39 | 36.07734 | -115.26280 | 5950 ft | 237 kts | 280° |
| 2026-05-03 23:39 | 36.08607 | -115.28052 | 6677 ft | 255 kts | 313° |
| 2026-05-03 23:40 | 36.10254 | -115.29068 | 7099 ft | 279 kts | 344° |
| 2026-05-03 23:40 | 36.12166 | -115.29576 | 7840 ft | 281 kts | 347° |
| 2026-05-03 23:40 | 36.14127 | -115.29608 | 8566 ft | 287 kts | 15° |
| 2026-05-03 23:40 | 36.15901 | -115.28462 | 9164 ft | 295 kts | 45° |
| 2026-05-03 23:41 | 36.17142 | -115.26403 | 9651 ft | 305 kts | 64° |
| 2026-05-03 23:41 | 36.18050 | -115.24014 | 10278 ft | 310 kts | 72° |
| 2026-05-03 23:41 | 36.18835 | -115.21421 | 10497 ft | 335 kts | 73° |
| 2026-05-03 23:41 | 36.19596 | -115.18601 | 10676 ft | 355 kts | 81° |
| 2026-05-03 23:42 | 36.19731 | -115.15487 | 10871 ft | 371 kts | 95° |
| 2026-05-03 23:42 | 36.19685 | -115.12256 | 11408 ft | 378 kts | 94° |
| 2026-05-03 23:42 | 36.19653 | -115.09028 | 12054 ft | 381 kts | 94° |
| 2026-05-03 23:42 | 36.19633 | -115.05722 | 12670 ft | 387 kts | 94° |
| 2026-05-03 23:43 | 36.19623 | -115.02377 | 13379 ft | 390 kts | 94° |
| 2026-05-03 23:43 | 36.19617 | -114.99003 | 14003 ft | 395 kts | 95° |
| 2026-05-03 23:43 | 36.19604 | -114.95580 | 14601 ft | 398 kts | 94° |
| 2026-05-03 23:43 | 36.19608 | -114.92156 | 15294 ft | 399 kts | 94° |
| 2026-05-03 23:44 | 36.19611 | -114.88698 | 15881 ft | 403 kts | 94° |
| 2026-05-03 23:44 | 36.19608 | -114.85198 | 16317 ft | 412 kts | 94° |
| 2026-05-03 23:44 | 36.19603 | -114.81625 | 16774 ft | 418 kts | 93° |
| 2026-05-03 23:44 | 36.19599 | -114.78025 | 17474 ft | 418 kts | 93° |
| 2026-05-03 23:45 | 36.19591 | -114.74418 | 18037 ft | 422 kts | 94° |
| 2026-05-03 23:45 | 36.19580 | -114.70758 | 18392 ft | 429 kts | 94° |
| 2026-05-03 23:45 | 36.19569 | -114.67049 | 18893 ft | 432 kts | 94° |
| 2026-05-03 23:45 | 36.19560 | -114.63304 | 19265 ft | 439 kts | 94° |
| 2026-05-03 23:46 | 36.19551 | -114.59508 | 19688 ft | 443 kts | 93° |
| 2026-05-03 23:46 | 36.19541 | -114.55679 | 20165 ft | 447 kts | 94° |
| 2026-05-03 23:46 | 36.19531 | -114.51818 | 20584 ft | 452 kts | 94° |
| 2026-05-03 23:46 | 36.19519 | -114.47902 | 20976 ft | 457 kts | 94° |
| 2026-05-03 23:47 | 36.19506 | -114.43958 | 21427 ft | 460 kts | 94° |
| 2026-05-03 23:47 | 36.19491 | -114.39973 | 21771 ft | 466 kts | 94° |
| 2026-05-03 23:47 | 36.19475 | -114.35936 | 22165 ft | 470 kts | 94° |
| 2026-05-03 23:47 | 36.19458 | -114.31882 | 22615 ft | 472 kts | 94° |
| 2026-05-03 23:48 | 36.19438 | -114.27797 | 22961 ft | 478 kts | 94° |
| 2026-05-03 23:48 | 36.19430 | -114.23664 | 23290 ft | 483 kts | 92° |
| 2026-05-03 23:48 | 36.19686 | -114.19484 | 23594 ft | 490 kts | 86° |
| 2026-05-03 23:48 | 36.20175 | -114.15287 | 23870 ft | 496 kts | 84° |
| 2026-05-03 23:49 | 36.20763 | -114.11043 | 24145 ft | 502 kts | 83° |
| 2026-05-03 23:49 | 36.21367 | -114.06772 | 24424 ft | 505 kts | 83° |
| 2026-05-03 23:49 | 36.21948 | -114.02468 | 24764 ft | 508 kts | 84° |
| 2026-05-03 23:49 | 36.22504 | -113.98127 | 25033 ft | 513 kts | 84° |
| 2026-05-03 23:50 | 36.23043 | -113.93729 | 25210 ft | 519 kts | 84° |
| 2026-05-03 23:50 | 36.23393 | -113.90793 | 25382 ft | 521 kts | 84° |
| 2026-05-03 23:50 | 36.24090 | -113.84835 | 25792 ft | 525 kts | 84° |
| 2026-05-03 23:50 | 36.24609 | -113.80348 | 26053 ft | 528 kts | 84° |
| 2026-05-03 23:51 | 36.25124 | -113.75887 | 26324 ft | 532 kts | 84° |
| 2026-05-03 23:51 | 36.25656 | -113.71274 | 26608 ft | 536 kts | 84° |
| 2026-05-03 23:51 | 36.26179 | -113.66743 | 26827 ft | 540 kts | 84° |
| 2026-05-03 23:51 | 36.26712 | -113.62135 | 27094 ft | 542 kts | 84° |
| 2026-05-03 23:52 | 36.27247 | -113.57488 | 27262 ft | 547 kts | 84° |
| 2026-05-03 23:52 | 36.27784 | -113.52805 | 27459 ft | 550 kts | 84° |
| 2026-05-03 23:52 | 36.28322 | -113.48101 | 27691 ft | 553 kts | 84° |
| 2026-05-03 23:52 | 36.28860 | -113.43371 | 27915 ft | 556 kts | 84° |
| 2026-05-03 23:53 | 36.29398 | -113.38621 | 28183 ft | 556 kts | 83° |
| 2026-05-03 23:53 | 36.29931 | -113.33892 | 28698 ft | 552 kts | 83° |
| 2026-05-03 23:53 | 36.30464 | -113.29157 | 28827 ft | 557 kts | 83° |
| 2026-05-03 23:53 | 36.31003 | -113.24388 | 29063 ft | 559 kts | 82° |
| 2026-05-03 23:54 | 36.31932 | -113.19712 | 29423 ft | 559 kts | 67° |
| 2026-05-03 23:54 | 36.33473 | -113.15287 | 29860 ft | 558 kts | 63° |
| 2026-05-03 23:54 | 36.35095 | -113.10905 | 30029 ft | 561 kts | 63° |
| 2026-05-03 23:54 | 36.36739 | -113.06501 | 30253 ft | 563 kts | 63° |
| 2026-05-03 23:55 | 36.38362 | -113.02093 | 30639 ft | 561 kts | 63° |
| 2026-05-03 23:55 | 36.39950 | -112.97693 | 31070 ft | 557 kts | 64° |
| 2026-05-03 23:55 | 36.41511 | -112.93293 | 31442 ft | 556 kts | 64° |
| 2026-05-03 23:55 | 36.43053 | -112.88893 | 31731 ft | 556 kts | 64° |
| 2026-05-03 23:56 | 36.44589 | -112.84484 | 32017 ft | 556 kts | 64° |
| 2026-05-03 23:56 | 36.46121 | -112.80073 | 32315 ft | 556 kts | 64° |
| 2026-05-03 23:56 | 36.47651 | -112.75668 | 32674 ft | 554 kts | 64° |
| 2026-05-03 23:56 | 36.49170 | -112.71293 | 33089 ft | 551 kts | 64° |
| 2026-05-03 23:57 | 36.50693 | -112.66925 | 33355 ft | 550 kts | 64° |
| 2026-05-03 23:57 | 36.52219 | -112.62562 | 33561 ft | 551 kts | 63° |
| 2026-05-03 23:57 | 36.53735 | -112.58185 | 33861 ft | 552 kts | 64° |
| 2026-05-03 23:57 | 36.55237 | -112.53788 | 34156 ft | 552 kts | 64° |
| 2026-05-03 23:58 | 36.56744 | -112.49412 | 34493 ft | 549 kts | 64° |
| 2026-05-03 23:58 | 36.58249 | -112.45055 | 34756 ft | 548 kts | 63° |
| 2026-05-03 23:58 | 36.59758 | -112.40688 | 34892 ft | 550 kts | 63° |
| 2026-05-03 23:58 | 36.61271 | -112.36304 | 35039 ft | 552 kts | 64° |
| 2026-05-03 23:59 | 36.62783 | -112.31913 | 35355 ft | 550 kts | 63° |
| 2026-05-03 23:59 | 36.64281 | -112.27547 | 35678 ft | 548 kts | 64° |
| 2026-05-03 23:59 | 36.65774 | -112.23188 | 35876 ft | 548 kts | 64° |
| 2026-05-03 23:59 | 36.67267 | -112.18824 | 36137 ft | 547 kts | 64° |
| 2026-05-04 00:00 | 36.68750 | -112.14481 | 36494 ft | 543 kts | 63° |
| 2026-05-04 00:00 | 36.70223 | -112.10159 | 36805 ft | 540 kts | 64° |
| 2026-05-04 00:00 | 36.71690 | -112.05852 | 36941 ft | 541 kts | 64° |
| 2026-05-04 00:00 | 36.73166 | -112.01518 | 36928 ft | 542 kts | 64° |
| 2026-05-04 00:01 | 36.76095 | -111.92891 | 36911 ft | 539 kts | 64° |
| 2026-05-04 00:01 | 36.78998 | -111.84309 | 36894 ft | 536 kts | 64° |
| 2026-05-04 00:02 | 36.81398 | -111.77199 | 36888 ft | 533 kts | 63° |
| 2026-05-04 00:02 | 36.84267 | -111.68687 | 36878 ft | 531 kts | 63° |
| 2026-05-04 00:03 | 36.86058 | -111.64701 | 36854 ft | 522 kts | 45° |
| 2026-05-04 00:03 | 36.88456 | -111.61375 | 36908 ft | 512 kts | 38° |
| 2026-05-04 00:03 | 36.93619 | -111.55217 | 36956 ft | 516 kts | 35° |
| 2026-05-04 00:04 | 36.98911 | -111.49073 | 36962 ft | 522 kts | 36° |
| 2026-05-04 00:04 | 37.04197 | -111.42786 | 36947 ft | 526 kts | 37° |
| 2026-05-04 00:05 | 37.09455 | -111.36390 | 36937 ft | 527 kts | 37° |
| 2026-05-04 00:05 | 37.14682 | -111.30001 | 36891 ft | 522 kts | 37° |
| 2026-05-04 00:06 | 37.19895 | -111.23663 | 36846 ft | 523 kts | 37° |
| 2026-05-04 00:06 | 37.25119 | -111.17303 | 36858 ft | 523 kts | 37° |
| 2026-05-04 00:07 | 37.30349 | -111.10907 | 36821 ft | 527 kts | 38° |
| 2026-05-04 00:07 | 37.35597 | -111.04449 | 36817 ft | 529 kts | 37° |
| 2026-05-04 00:08 | 37.40864 | -110.97987 | 36797 ft | 530 kts | 37° |
| 2026-05-04 00:08 | 37.46128 | -110.91502 | 36812 ft | 530 kts | 38° |
| 2026-05-04 00:09 | 37.51398 | -110.85005 | 36775 ft | 530 kts | 38° |
| 2026-05-04 00:09 | 37.56613 | -110.78558 | 36799 ft | 529 kts | 38° |
| 2026-05-04 00:10 | 37.61853 | -110.72065 | 36795 ft | 527 kts | 38° |
| 2026-05-04 00:10 | 37.67080 | -110.65578 | 36788 ft | 527 kts | 38° |
| 2026-05-04 00:11 | 37.72293 | -110.59094 | 36799 ft | 526 kts | 38° |
| 2026-05-04 00:11 | 37.77492 | -110.52616 | 36816 ft | 524 kts | 38° |
| 2026-05-04 00:12 | 37.82671 | -110.46135 | 36780 ft | 523 kts | 38° |
| 2026-05-04 00:12 | 37.87771 | -110.39625 | 36820 ft | 516 kts | 39° |
| 2026-05-04 00:13 | 37.92858 | -110.33233 | 36778 ft | 515 kts | 37° |
| 2026-05-04 00:13 | 37.97993 | -110.26854 | 36836 ft | 519 kts | 38° |
| 2026-05-04 00:14 | 38.03176 | -110.20382 | 36799 ft | 526 kts | 39° |
| 2026-05-04 00:14 | 38.08321 | -110.13788 | 36832 ft | 526 kts | 38° |
| 2026-05-04 00:15 | 38.13430 | -110.07384 | 36802 ft | 507 kts | 38° |
| 2026-05-04 00:15 | 38.18449 | -110.01062 | 36828 ft | 510 kts | 38° |
| 2026-05-04 00:16 | 38.23485 | -109.94683 | 36809 ft | 513 kts | 39° |
| 2026-05-04 00:16 | 38.28532 | -109.88253 | 36815 ft | 514 kts | 39° |
| 2026-05-04 00:17 | 38.33596 | -109.81796 | 36851 ft | 516 kts | 39° |
| 2026-05-04 00:17 | 38.38669 | -109.75328 | 36826 ft | 513 kts | 39° |
| 2026-05-04 00:18 | 38.43657 | -109.68931 | 36816 ft | 505 kts | 39° |
| 2026-05-04 00:18 | 38.48599 | -109.62575 | 36845 ft | 504 kts | 39° |
| 2026-05-04 00:19 | 38.53525 | -109.56238 | 36840 ft | 502 kts | 39° |
| 2026-05-04 00:19 | 38.58446 | -109.49895 | 36855 ft | 503 kts | 39° |
| 2026-05-04 00:20 | 38.63374 | -109.43534 | 36861 ft | 504 kts | 40° |
| 2026-05-04 00:20 | 38.68271 | -109.37186 | 36844 ft | 503 kts | 40° |
| 2026-05-04 00:21 | 38.73181 | -109.30812 | 36860 ft | 503 kts | 40° |
| 2026-05-04 00:21 | 38.78086 | -109.24429 | 36863 ft | 502 kts | 40° |
| 2026-05-04 00:22 | 38.82991 | -109.18062 | 36857 ft | 502 kts | 40° |
| 2026-05-04 00:22 | 38.87895 | -109.11669 | 36868 ft | 503 kts | 40° |
| 2026-05-04 00:23 | 38.92794 | -109.05263 | 36835 ft | 502 kts | 41° |
| 2026-05-04 00:23 | 38.97676 | -108.98861 | 36830 ft | 501 kts | 41° |
| 2026-05-04 00:24 | 39.02543 | -108.92465 | 36819 ft | 499 kts | 41° |
| 2026-05-04 00:24 | 39.07386 | -108.86093 | 36820 ft | 497 kts | 41° |
| 2026-05-04 00:25 | 39.12208 | -108.79741 | 36809 ft | 494 kts | 41° |
| 2026-05-04 00:25 | 39.17000 | -108.73416 | 36914 ft | 492 kts | 41° |
| 2026-05-04 00:26 | 39.21768 | -108.67094 | 36924 ft | 491 kts | 41° |
| 2026-05-04 00:26 | 39.26524 | -108.60780 | 36925 ft | 490 kts | 41° |
| 2026-05-04 00:27 | 39.31276 | -108.54462 | 36907 ft | 491 kts | 41° |
| 2026-05-04 00:27 | 39.36031 | -108.48126 | 36889 ft | 491 kts | 41° |
| 2026-05-04 00:28 | 39.40784 | -108.41769 | 36862 ft | 492 kts | 41° |
| 2026-05-04 00:28 | 39.45553 | -108.35387 | 36853 ft | 494 kts | 41° |
| 2026-05-04 00:29 | 39.50323 | -108.28999 | 36861 ft | 494 kts | 41° |
| 2026-05-04 00:29 | 39.55060 | -108.22641 | 36863 ft | 493 kts | 41° |
| 2026-05-04 00:30 | 39.59815 | -108.16238 | 36853 ft | 493 kts | 41° |
| 2026-05-04 00:30 | 39.64475 | -108.09785 | 36882 ft | 488 kts | 41° |
| 2026-05-04 00:31 | 39.69181 | -108.03467 | 36862 ft | 487 kts | 41° |
| 2026-05-04 00:31 | 39.73903 | -107.97150 | 36910 ft | 487 kts | 42° |
| 2026-05-04 00:32 | 39.78611 | -107.90797 | 36928 ft | 488 kts | 42° |
| 2026-05-04 00:32 | 39.83330 | -107.84432 | 36955 ft | 489 kts | 43° |
| 2026-05-04 00:33 | 39.90355 | -107.74794 | 36887 ft | 489 kts | 42° |
| 2026-05-04 00:34 | 39.95039 | -107.68381 | 36903 ft | 488 kts | 42° |
| 2026-05-04 00:34 | 39.99710 | -107.61977 | 36931 ft | 487 kts | 42° |
| 2026-05-04 00:35 | 40.04363 | -107.55577 | 36932 ft | 485 kts | 42° |
| 2026-05-04 00:35 | 40.09004 | -107.49195 | 36931 ft | 485 kts | 43° |
| 2026-05-04 00:36 | 40.13605 | -107.42847 | 36944 ft | 484 kts | 43° |
| 2026-05-04 00:36 | 40.18226 | -107.36458 | 36964 ft | 485 kts | 42° |
| 2026-05-04 00:37 | 40.22857 | -107.30041 | 36980 ft | 485 kts | 43° |
| 2026-05-04 00:37 | 40.27485 | -107.23620 | 37009 ft | 485 kts | 43° |
| 2026-05-04 00:38 | 40.32109 | -107.17182 | 37012 ft | 485 kts | 43° |
| 2026-05-04 00:38 | 40.36719 | -107.10752 | 37017 ft | 483 kts | 43° |
| 2026-05-04 00:39 | 40.41316 | -107.04327 | 37030 ft | 482 kts | 43° |
| 2026-05-04 00:39 | 40.45904 | -106.97903 | 37004 ft | 482 kts | 43° |
| 2026-05-04 00:40 | 40.50456 | -106.91516 | 36973 ft | 482 kts | 43° |
| 2026-05-04 00:40 | 40.55029 | -106.85086 | 37042 ft | 481 kts | 43° |
| 2026-05-04 00:41 | 40.59599 | -106.78644 | 37031 ft | 481 kts | 43° |
| 2026-05-04 00:41 | 40.64164 | -106.72197 | 37007 ft | 481 kts | 43° |
| 2026-05-04 00:42 | 40.68718 | -106.65751 | 36996 ft | 480 kts | 43° |
| 2026-05-04 00:42 | 40.73257 | -106.59298 | 36950 ft | 479 kts | 43° |
| 2026-05-04 00:43 | 40.77793 | -106.52854 | 36925 ft | 479 kts | 43° |
| 2026-05-04 00:43 | 40.82325 | -106.46404 | 36918 ft | 479 kts | 43° |
| 2026-05-04 00:44 | 40.86848 | -106.39950 | 36922 ft | 479 kts | 43° |
| 2026-05-04 00:44 | 40.91370 | -106.33480 | 36919 ft | 479 kts | 43° |
| 2026-05-04 00:45 | 40.95886 | -106.27004 | 36923 ft | 479 kts | 43° |
| 2026-05-04 00:45 | 41.00404 | -106.20511 | 36898 ft | 480 kts | 43° |
| 2026-05-04 00:46 | 41.04922 | -106.14003 | 36895 ft | 480 kts | 43° |
| 2026-05-04 00:46 | 41.09436 | -106.07488 | 36896 ft | 480 kts | 43° |
| 2026-05-04 00:47 | 41.13945 | -106.00964 | 36882 ft | 480 kts | 43° |
| 2026-05-04 00:47 | 41.18419 | -105.94478 | 36875 ft | 480 kts | 43° |
| 2026-05-04 00:48 | 41.22952 | -105.87892 | 36974 ft | 480 kts | 43° |
| 2026-05-04 00:48 | 41.27419 | -105.81386 | 37014 ft | 480 kts | 43° |
| 2026-05-04 00:49 | 41.31914 | -105.74828 | 37037 ft | 480 kts | 43° |
| 2026-05-04 00:49 | 41.36757 | -105.68859 | 37041 ft | 471 kts | 31° |
| 2026-05-04 00:50 | 41.42035 | -105.63708 | 37022 ft | 470 kts | 30° |
| 2026-05-04 00:50 | 41.46437 | -105.59461 | 36985 ft | 470 kts | 30° |
| 2026-05-04 00:50 | 41.49078 | -105.56881 | 36855 ft | 471 kts | 30° |
| 2026-05-04 00:51 | 41.51714 | -105.54282 | 36855 ft | 471 kts | 31° |
| 2026-05-04 00:51 | 41.56966 | -105.49057 | 36888 ft | 471 kts | 31° |
| 2026-05-04 00:52 | 41.62210 | -105.43809 | 36873 ft | 470 kts | 31° |
| 2026-05-04 00:52 | 41.67442 | -105.38562 | 36873 ft | 470 kts | 31° |
| 2026-05-04 00:53 | 41.72669 | -105.33311 | 36880 ft | 469 kts | 31° |
| 2026-05-04 00:53 | 41.77888 | -105.28059 | 36902 ft | 469 kts | 31° |
| 2026-05-04 00:54 | 41.83095 | -105.22809 | 36894 ft | 468 kts | 31° |
| 2026-05-04 00:54 | 41.88296 | -105.17554 | 36892 ft | 468 kts | 31° |
| 2026-05-04 00:55 | 41.93494 | -105.12291 | 36896 ft | 467 kts | 31° |
| 2026-05-04 00:55 | 41.98673 | -105.07035 | 36890 ft | 466 kts | 31° |
| 2026-05-04 00:56 | 42.03840 | -105.01781 | 36912 ft | 465 kts | 31° |
| 2026-05-04 00:56 | 42.09001 | -104.96523 | 36934 ft | 465 kts | 31° |
| 2026-05-04 00:57 | 42.14116 | -104.91301 | 36956 ft | 464 kts | 31° |
| 2026-05-04 00:57 | 42.19260 | -104.86037 | 36934 ft | 464 kts | 31° |
| 2026-05-04 00:58 | 42.24399 | -104.80768 | 36929 ft | 464 kts | 31° |
| 2026-05-04 00:58 | 42.29526 | -104.75500 | 36944 ft | 463 kts | 32° |
| 2026-05-04 00:59 | 42.34649 | -104.70226 | 36938 ft | 463 kts | 32° |
| 2026-05-04 00:59 | 42.39763 | -104.64949 | 36916 ft | 462 kts | 32° |
| 2026-05-04 01:00 | 42.44868 | -104.59677 | 36921 ft | 461 kts | 32° |
| 2026-05-04 01:00 | 42.49963 | -104.54395 | 36929 ft | 461 kts | 32° |
| 2026-05-04 01:01 | 42.55056 | -104.49105 | 36923 ft | 461 kts | 32° |
| 2026-05-04 01:01 | 42.60148 | -104.43806 | 36913 ft | 461 kts | 32° |
| 2026-05-04 01:02 | 42.65236 | -104.38500 | 36914 ft | 461 kts | 32° |
| 2026-05-04 01:02 | 42.70316 | -104.33192 | 36898 ft | 461 kts | 32° |
| 2026-05-04 01:03 | 42.75393 | -104.27876 | 36911 ft | 460 kts | 33° |
| 2026-05-04 01:03 | 42.80463 | -104.22555 | 36894 ft | 460 kts | 33° |
| 2026-05-04 01:04 | 42.85525 | -104.17233 | 36880 ft | 459 kts | 33° |
| 2026-05-04 01:04 | 42.90544 | -104.11943 | 36880 ft | 458 kts | 33° |
| 2026-05-04 01:05 | 42.95583 | -104.06621 | 36855 ft | 458 kts | 33° |
| 2026-05-04 01:05 | 43.00607 | -104.01303 | 36860 ft | 457 kts | 33° |
| 2026-05-04 01:06 | 43.05624 | -103.95983 | 36852 ft | 456 kts | 33° |
| 2026-05-04 01:06 | 43.10623 | -103.90670 | 36834 ft | 454 kts | 33° |
| 2026-05-04 01:07 | 43.15608 | -103.85361 | 36862 ft | 454 kts | 33° |
| 2026-05-04 01:07 | 43.20583 | -103.80051 | 36859 ft | 453 kts | 33° |
| 2026-05-04 01:08 | 43.25552 | -103.74735 | 36840 ft | 453 kts | 33° |
| 2026-05-04 01:08 | 43.30512 | -103.69419 | 36820 ft | 452 kts | 33° |
| 2026-05-04 01:09 | 43.35430 | -103.64137 | 36839 ft | 451 kts | 33° |
| 2026-05-04 01:09 | 43.40400 | -103.58785 | 36842 ft | 450 kts | 33° |
| 2026-05-04 01:10 | 43.45297 | -103.53505 | 36845 ft | 450 kts | 34° |
| 2026-05-04 01:10 | 43.50227 | -103.48177 | 36855 ft | 450 kts | 34° |
| 2026-05-04 01:11 | 43.55147 | -103.42845 | 36854 ft | 450 kts | 34° |
| 2026-05-04 01:11 | 43.60064 | -103.37507 | 36896 ft | 450 kts | 34° |
| 2026-05-04 01:12 | 43.64974 | -103.32164 | 36906 ft | 449 kts | 34° |
| 2026-05-04 01:12 | 43.69879 | -103.26817 | 36884 ft | 449 kts | 34° |
| 2026-05-04 01:13 | 43.74776 | -103.21466 | 36878 ft | 448 kts | 34° |
| 2026-05-04 01:13 | 43.79667 | -103.16111 | 36869 ft | 448 kts | 34° |
| 2026-05-04 01:14 | 43.84552 | -103.10750 | 36873 ft | 448 kts | 34° |
| 2026-05-04 01:14 | 43.89437 | -103.05378 | 36865 ft | 448 kts | 34° |
| 2026-05-04 01:15 | 43.94319 | -102.99997 | 36862 ft | 448 kts | 34° |
| 2026-05-04 01:15 | 43.99199 | -102.94607 | 36857 ft | 448 kts | 34° |
| 2026-05-04 01:16 | 44.04077 | -102.89207 | 36859 ft | 448 kts | 34° |
| 2026-05-04 01:16 | 44.08953 | -102.83798 | 36857 ft | 448 kts | 34° |
| 2026-05-04 01:17 | 44.13826 | -102.78381 | 36854 ft | 448 kts | 34° |
| 2026-05-04 01:17 | 44.18702 | -102.72950 | 36836 ft | 449 kts | 34° |
| 2026-05-04 01:18 | 44.23576 | -102.67508 | 36838 ft | 449 kts | 34° |
| 2026-05-04 01:18 | 44.28454 | -102.62049 | 36831 ft | 449 kts | 34° |
| 2026-05-04 01:19 | 44.33330 | -102.56580 | 36833 ft | 449 kts | 34° |
| 2026-05-04 01:19 | 44.38202 | -102.51105 | 36828 ft | 450 kts | 34° |
| 2026-05-04 01:20 | 44.43076 | -102.45614 | 36827 ft | 450 kts | 34° |
| 2026-05-04 01:20 | 44.47945 | -102.40118 | 36829 ft | 450 kts | 34° |
| 2026-05-04 01:21 | 44.52782 | -102.34645 | 36829 ft | 450 kts | 35° |
| 2026-05-04 01:21 | 44.57647 | -102.29128 | 36817 ft | 450 kts | 35° |
| 2026-05-04 01:22 | 44.62507 | -102.23605 | 36810 ft | 449 kts | 35° |
| 2026-05-04 01:22 | 44.67357 | -102.18081 | 36811 ft | 449 kts | 35° |
| 2026-05-04 01:23 | 44.72204 | -102.12548 | 36811 ft | 449 kts | 35° |
| 2026-05-04 01:23 | 44.77046 | -102.07008 | 36812 ft | 448 kts | 34° |
| 2026-05-04 01:24 | 44.81864 | -102.01483 | 36792 ft | 446 kts | 34° |
| 2026-05-04 01:24 | 44.86656 | -101.95976 | 36793 ft | 444 kts | 34° |
| 2026-05-04 01:25 | 44.91429 | -101.90480 | 36790 ft | 442 kts | 34° |
| 2026-05-04 01:25 | 44.96183 | -101.84992 | 36805 ft | 441 kts | 34° |
| 2026-05-04 01:26 | 45.00913 | -101.79519 | 36782 ft | 439 kts | 34° |
| 2026-05-04 01:26 | 45.05626 | -101.74056 | 36779 ft | 437 kts | 34° |
| 2026-05-04 01:27 | 45.10339 | -101.68675 | 36775 ft | 434 kts | 32° |
| 2026-05-04 01:27 | 45.15147 | -101.63553 | 36777 ft | 432 kts | 31° |
| 2026-05-04 01:28 | 45.19958 | -101.58472 | 36781 ft | 431 kts | 31° |
| 2026-05-04 01:28 | 45.24753 | -101.53359 | 36768 ft | 431 kts | 31° |
| 2026-05-04 01:29 | 45.29539 | -101.48215 | 36769 ft | 432 kts | 31° |
| 2026-05-04 01:29 | 45.34328 | -101.43048 | 36766 ft | 433 kts | 31° |
| 2026-05-04 01:30 | 45.39127 | -101.37856 | 36757 ft | 434 kts | 32° |
| 2026-05-04 01:30 | 45.43938 | -101.32641 | 36763 ft | 436 kts | 31° |
| 2026-05-04 01:31 | 45.48733 | -101.27432 | 36758 ft | 437 kts | 31° |
| 2026-05-04 01:31 | 45.53577 | -101.22157 | 36751 ft | 439 kts | 31° |
| 2026-05-04 01:32 | 45.58436 | -101.16855 | 36744 ft | 440 kts | 31° |
| 2026-05-04 01:32 | 45.63300 | -101.11534 | 36747 ft | 441 kts | 31° |
| 2026-05-04 01:33 | 45.68175 | -101.06190 | 36740 ft | 442 kts | 31° |
| 2026-05-04 01:33 | 45.73055 | -101.00829 | 36742 ft | 443 kts | 31° |
| 2026-05-04 01:34 | 45.77940 | -100.95450 | 36734 ft | 443 kts | 31° |
| 2026-05-04 01:34 | 45.82820 | -100.90064 | 36711 ft | 443 kts | 31° |
| 2026-05-04 01:35 | 45.87697 | -100.84668 | 36726 ft | 443 kts | 31° |
| 2026-05-04 01:35 | 45.92571 | -100.79265 | 36712 ft | 443 kts | 31° |
| 2026-05-04 01:36 | 45.97444 | -100.73850 | 36708 ft | 442 kts | 31° |
| 2026-05-04 01:36 | 46.02312 | -100.68430 | 36711 ft | 443 kts | 31° |
| 2026-05-04 01:37 | 46.07184 | -100.62990 | 36696 ft | 443 kts | 31° |
| 2026-05-04 01:37 | 46.12060 | -100.57535 | 36698 ft | 444 kts | 31° |
| 2026-05-04 01:38 | 46.16936 | -100.52067 | 36692 ft | 445 kts | 31° |
| 2026-05-04 01:38 | 46.20994 | -100.47507 | 36688 ft | 445 kts | 31° |
| 2026-05-04 01:39 | 46.25884 | -100.42000 | 36703 ft | 446 kts | 31° |
| 2026-05-04 01:39 | 46.30783 | -100.36471 | 36692 ft | 447 kts | 31° |
| 2026-05-04 01:40 | 46.35684 | -100.30926 | 36677 ft | 448 kts | 31° |
| 2026-05-04 01:40 | 46.40595 | -100.25356 | 36677 ft | 448 kts | 31° |
| 2026-05-04 01:41 | 46.45498 | -100.19781 | 36680 ft | 448 kts | 31° |
| 2026-05-04 01:41 | 46.50404 | -100.14190 | 36674 ft | 448 kts | 31° |
| 2026-05-04 01:42 | 46.55309 | -100.08587 | 36676 ft | 449 kts | 31° |
| 2026-05-04 01:42 | 46.60218 | -100.02968 | 36670 ft | 450 kts | 31° |
| 2026-05-04 01:43 | 46.65132 | -99.97330 | 36661 ft | 450 kts | 31° |
| 2026-05-04 01:43 | 46.70011 | -99.91718 | 36660 ft | 450 kts | 31° |
| 2026-05-04 01:44 | 46.74955 | -99.86017 | 36657 ft | 450 kts | 31° |
| 2026-05-04 01:44 | 46.79834 | -99.80378 | 36679 ft | 451 kts | 31° |
| 2026-05-04 01:45 | 46.84752 | -99.74680 | 36654 ft | 451 kts | 31° |
| 2026-05-04 01:45 | 46.92128 | -99.66108 | 36639 ft | 452 kts | 31° |
| 2026-05-04 01:46 | 46.97042 | -99.60381 | 36638 ft | 452 kts | 31° |
| 2026-05-04 01:46 | 47.01960 | -99.54636 | 36623 ft | 453 kts | 30° |
| 2026-05-04 01:47 | 47.06879 | -99.48875 | 36628 ft | 453 kts | 30° |
| 2026-05-04 01:47 | 47.11796 | -99.43100 | 36628 ft | 453 kts | 31° |
| 2026-05-04 01:48 | 47.16719 | -99.37306 | 36621 ft | 453 kts | 31° |
| 2026-05-04 01:48 | 47.21634 | -99.31506 | 36658 ft | 453 kts | 30° |
| 2026-05-04 01:49 | 47.26559 | -99.25681 | 36618 ft | 454 kts | 30° |
| 2026-05-04 01:49 | 47.31485 | -99.19842 | 36605 ft | 455 kts | 30° |
| 2026-05-04 01:50 | 47.36409 | -99.13988 | 36612 ft | 455 kts | 30° |
| 2026-05-04 01:50 | 47.41335 | -99.08119 | 36600 ft | 455 kts | 30° |
| 2026-05-04 01:51 | 47.46259 | -99.02237 | 36604 ft | 455 kts | 30° |
| 2026-05-04 01:51 | 47.51183 | -98.96341 | 36600 ft | 455 kts | 30° |
| 2026-05-04 01:52 | 47.56104 | -98.90433 | 36585 ft | 455 kts | 30° |
| 2026-05-04 01:52 | 47.60991 | -98.84552 | 36577 ft | 455 kts | 30° |
| 2026-05-04 01:53 | 47.65902 | -98.78626 | 36584 ft | 455 kts | 31° |
| 2026-05-04 01:53 | 47.70816 | -98.72683 | 36578 ft | 456 kts | 30° |
| 2026-05-04 01:54 | 47.75731 | -98.66725 | 36575 ft | 456 kts | 31° |
| 2026-05-04 01:54 | 47.80645 | -98.60751 | 36557 ft | 456 kts | 31° |
| 2026-05-04 01:55 | 47.85557 | -98.54764 | 36557 ft | 456 kts | 31° |
| 2026-05-04 01:55 | 47.90463 | -98.48769 | 36558 ft | 456 kts | 31° |
| 2026-05-04 01:56 | 47.95375 | -98.42755 | 36553 ft | 458 kts | 31° |
| 2026-05-04 01:56 | 48.00293 | -98.36716 | 36553 ft | 458 kts | 31° |
| 2026-05-04 01:57 | 48.05209 | -98.30663 | 36543 ft | 458 kts | 31° |
| 2026-05-04 01:57 | 48.10122 | -98.24599 | 36545 ft | 458 kts | 31° |
| 2026-05-04 01:58 | 48.15041 | -98.18513 | 36564 ft | 459 kts | 31° |
| 2026-05-04 01:58 | 48.19959 | -98.12412 | 36540 ft | 460 kts | 31° |
| 2026-05-04 01:59 | 48.22443 | -98.09328 | 36126 ft | 466 kts | 31° |
| 2026-05-04 01:59 | 48.24904 | -98.06268 | 35604 ft | 464 kts | 31° |
| 2026-05-04 01:59 | 48.27412 | -98.03138 | 34964 ft | 463 kts | 31° |
| 2026-05-04 01:59 | 48.29855 | -98.00086 | 34317 ft | 463 kts | 31° |
| 2026-05-04 02:00 | 48.32362 | -97.96952 | 33643 ft | 463 kts | 30° |
| 2026-05-04 02:00 | 48.34839 | -97.93854 | 32868 ft | 464 kts | 30° |
| 2026-05-04 02:00 | 48.37285 | -97.90791 | 32100 ft | 464 kts | 30° |
| 2026-05-04 02:00 | 48.39762 | -97.87684 | 31365 ft | 465 kts | 30° |
| 2026-05-04 02:01 | 48.42248 | -97.84563 | 30602 ft | 466 kts | 30° |
| 2026-05-04 02:01 | 48.44745 | -97.81425 | 29823 ft | 468 kts | 30° |
| 2026-05-04 02:01 | 48.47248 | -97.78276 | 28890 ft | 470 kts | 31° |
| 2026-05-04 02:01 | 48.49760 | -97.75110 | 28085 ft | 470 kts | 31° |
| 2026-05-04 02:02 | 48.52246 | -97.71962 | 27483 ft | 464 kts | 31° |
| 2026-05-04 02:02 | 48.54706 | -97.68844 | 26863 ft | 460 kts | 32° |
| 2026-05-04 02:02 | 48.57143 | -97.65752 | 26258 ft | 455 kts | 32° |
| 2026-05-04 02:02 | 48.59553 | -97.62693 | 25665 ft | 451 kts | 32° |
| 2026-05-04 02:03 | 48.61947 | -97.59654 | 25078 ft | 448 kts | 32° |
| 2026-05-04 02:03 | 48.64324 | -97.56634 | 24493 ft | 444 kts | 32° |
| 2026-05-04 02:03 | 48.66683 | -97.53634 | 23897 ft | 442 kts | 32° |
| 2026-05-04 02:03 | 48.69031 | -97.50645 | 23297 ft | 440 kts | 33° |
| 2026-05-04 02:04 | 48.71370 | -97.47664 | 22631 ft | 439 kts | 33° |
| 2026-05-04 02:04 | 48.73695 | -97.44694 | 21986 ft | 435 kts | 33° |
| 2026-05-04 02:04 | 48.75993 | -97.41753 | 21405 ft | 432 kts | 33° |
| 2026-05-04 02:04 | 48.78283 | -97.38820 | 20802 ft | 429 kts | 33° |
| 2026-05-04 02:05 | 48.80552 | -97.35910 | 20213 ft | 426 kts | 33° |
| 2026-05-04 02:05 | 48.82807 | -97.33015 | 19636 ft | 423 kts | 33° |
| 2026-05-04 02:05 | 48.85047 | -97.30137 | 19071 ft | 421 kts | 33° |
| 2026-05-04 02:05 | 48.87275 | -97.27271 | 18469 ft | 420 kts | 33° |
| 2026-05-04 02:06 | 48.89502 | -97.24404 | 17880 ft | 419 kts | 33° |
| 2026-05-04 02:06 | 48.91718 | -97.21546 | 17235 ft | 417 kts | 33° |
| 2026-05-04 02:06 | 48.93922 | -97.18699 | 16621 ft | 414 kts | 33° |
| 2026-05-04 02:06 | 48.96107 | -97.15871 | 16037 ft | 411 kts | 33° |
| 2026-05-04 02:07 | 48.98274 | -97.13065 | 15453 ft | 408 kts | 33° |
| 2026-05-04 02:07 | 49.00424 | -97.10279 | 14896 ft | 404 kts | 33° |
| 2026-05-04 02:07 | 49.02558 | -97.07511 | 14358 ft | 401 kts | 33° |
| 2026-05-04 02:07 | 49.04673 | -97.04764 | 13824 ft | 399 kts | 33° |
| 2026-05-04 02:08 | 49.06850 | -97.02220 | 13263 ft | 387 kts | 21° |
| 2026-05-04 02:08 | 49.09306 | -97.00934 | 12745 ft | 365 kts | 2° |
| 2026-05-04 02:08 | 49.11795 | -97.00771 | 12016 ft | 354 kts | 346° |
| 2026-05-04 02:08 | 49.14202 | -97.01324 | 11546 ft | 346 kts | 343° |
| 2026-05-04 02:09 | 49.16551 | -97.01943 | 11086 ft | 341 kts | 343° |
| 2026-05-04 02:09 | 49.18861 | -97.02562 | 10863 ft | 330 kts | 343° |
| 2026-05-04 02:09 | 49.21080 | -97.03144 | 10709 ft | 318 kts | 343° |
| 2026-05-04 02:09 | 49.23220 | -97.03698 | 10577 ft | 306 kts | 343° |
| 2026-05-04 02:10 | 49.25283 | -97.04227 | 10453 ft | 296 kts | 343° |
| 2026-05-04 02:10 | 49.27272 | -97.04734 | 10332 ft | 286 kts | 343° |
| 2026-05-04 02:10 | 49.29202 | -97.05225 | 10214 ft | 276 kts | 343° |
| 2026-05-04 02:10 | 49.31071 | -97.05701 | 10136 ft | 267 kts | 342° |
| 2026-05-04 02:11 | 49.32884 | -97.06164 | 9972 ft | 261 kts | 343° |
| 2026-05-04 02:11 | 49.34674 | -97.06623 | 9692 ft | 260 kts | 343° |
| 2026-05-04 02:11 | 49.36455 | -97.07077 | 9433 ft | 259 kts | 343° |
| 2026-05-04 02:11 | 49.38234 | -97.07530 | 9139 ft | 258 kts | 343° |
| 2026-05-04 02:12 | 49.40002 | -97.07979 | 8856 ft | 257 kts | 343° |
| 2026-05-04 02:12 | 49.41756 | -97.08431 | 8576 ft | 254 kts | 343° |
| 2026-05-04 02:12 | 49.43487 | -97.08964 | 8270 ft | 253 kts | 342° |
| 2026-05-04 02:12 | 49.45204 | -97.09523 | 8008 ft | 251 kts | 342° |
| 2026-05-04 02:13 | 49.46894 | -97.10075 | 7742 ft | 245 kts | 342° |
| 2026-05-04 02:13 | 49.48547 | -97.10612 | 7480 ft | 241 kts | 342° |
| 2026-05-04 02:13 | 49.50171 | -97.11137 | 7226 ft | 236 kts | 343° |
| 2026-05-04 02:13 | 49.51762 | -97.11650 | 6995 ft | 231 kts | 343° |
| 2026-05-04 02:14 | 49.53333 | -97.12155 | 6786 ft | 230 kts | 343° |
| 2026-05-04 02:14 | 49.54908 | -97.12663 | 6539 ft | 233 kts | 343° |
| 2026-05-04 02:14 | 49.56510 | -97.13181 | 6297 ft | 237 kts | 343° |
| 2026-05-04 02:14 | 49.58149 | -97.13629 | 6032 ft | 241 kts | 353° |
| 2026-05-04 02:15 | 49.59809 | -97.13209 | 5837 ft | 241 kts | 7° |
| 2026-05-04 02:15 | 49.61422 | -97.12602 | 5570 ft | 236 kts | 6° |
| 2026-05-04 02:15 | 49.62994 | -97.12018 | 5331 ft | 230 kts | 6° |
| 2026-05-04 02:15 | 49.64526 | -97.11450 | 5098 ft | 223 kts | 6° |
| 2026-05-04 02:16 | 49.66021 | -97.10894 | 4867 ft | 220 kts | 7° |
| 2026-05-04 02:16 | 49.67408 | -97.09740 | 4596 ft | 242 kts | 36° |
| 2026-05-04 02:16 | 49.68293 | -97.07438 | 4532 ft | 268 kts | 66° |
| 2026-05-04 02:16 | 49.68393 | -97.04472 | 4499 ft | 288 kts | 96° |
| 2026-05-04 02:17 | 49.67597 | -97.01593 | 4485 ft | 298 kts | 125° |
| 2026-05-04 02:17 | 49.66136 | -96.99328 | 4502 ft | 298 kts | 140° |
| 2026-05-04 02:17 | 49.64539 | -96.97277 | 4491 ft | 299 kts | 141° |
| 2026-05-04 02:17 | 49.62931 | -96.95256 | 4481 ft | 298 kts | 141° |
| 2026-05-04 02:18 | 49.61314 | -96.93251 | 4491 ft | 297 kts | 141° |
| 2026-05-04 02:18 | 49.59698 | -96.91264 | 4490 ft | 297 kts | 141° |
| 2026-05-04 02:18 | 49.58315 | -96.88938 | 4492 ft | 293 kts | 115° |
| 2026-05-04 02:18 | 49.57726 | -96.86019 | 4507 ft | 281 kts | 86° |
| 2026-05-04 02:19 | 49.58032 | -96.83166 | 4495 ft | 263 kts | 56° |
| 2026-05-04 02:19 | 49.59097 | -96.81047 | 4499 ft | 243 kts | 26° |
| 2026-05-04 02:19 | 49.60593 | -96.80133 | 4497 ft | 227 kts | 357° |
| 2026-05-04 02:19 | 49.62079 | -96.80597 | 4503 ft | 218 kts | 328° |
| 2026-05-04 02:20 | 49.63154 | -96.82223 | 4501 ft | 220 kts | 306° |
| 2026-05-04 02:20 | 49.63978 | -96.84227 | 4491 ft | 222 kts | 304° |
| 2026-05-04 02:20 | 49.64757 | -96.86218 | 4482 ft | 216 kts | 303° |
| 2026-05-04 02:20 | 49.65496 | -96.88137 | 4472 ft | 200 kts | 303° |
| 2026-05-04 02:21 | 49.66166 | -96.89907 | 4490 ft | 184 kts | 303° |
| 2026-05-04 02:21 | 49.66892 | -96.91483 | 4483 ft | 178 kts | 317° |
| 2026-05-04 02:21 | 49.67816 | -96.92766 | 4485 ft | 180 kts | 317° |
| 2026-05-04 02:21 | 49.68733 | -96.94091 | 4482 ft | 181 kts | 317° |
| 2026-05-04 02:22 | 49.69659 | -96.95405 | 4482 ft | 181 kts | 317° |
| 2026-05-04 02:22 | 49.70594 | -96.96711 | 4478 ft | 181 kts | 318° |
| 2026-05-04 02:22 | 49.71529 | -96.98009 | 4475 ft | 180 kts | 318° |
| 2026-05-04 02:22 | 49.72443 | -96.99270 | 4464 ft | 172 kts | 318° |
| 2026-05-04 02:23 | 49.73320 | -97.00480 | 4462 ft | 167 kts | 318° |
| 2026-05-04 02:23 | 49.74187 | -97.01676 | 4468 ft | 168 kts | 318° |
| 2026-05-04 02:23 | 49.75068 | -97.02890 | 4470 ft | 171 kts | 318° |
| 2026-05-04 02:23 | 49.75955 | -97.04110 | 4336 ft | 171 kts | 317° |
| 2026-05-04 02:24 | 49.76846 | -97.05338 | 4128 ft | 171 kts | 316° |
| 2026-05-04 02:24 | 49.77712 | -97.06534 | 3894 ft | 163 kts | 317° |
| 2026-05-04 02:24 | 49.78533 | -97.07665 | 3679 ft | 152 kts | 317° |
| 2026-05-04 02:24 | 49.79040 | -97.08362 | 3551 ft | 143 kts | 317° |
| 2026-05-04 02:25 | 49.79762 | -97.09357 | 3361 ft | 137 kts | 317° |
| 2026-05-04 02:25 | 49.80476 | -97.10339 | 3185 ft | 137 kts | 317° |
| 2026-05-04 02:25 | 49.81178 | -97.11306 | 3011 ft | 132 kts | 317° |
| 2026-05-04 02:25 | 49.81835 | -97.12212 | 2812 ft | 120 kts | 317° |
| 2026-05-04 02:26 | 49.82619 | -97.13290 | 2662 ft | 113 kts | 316° |
| 2026-05-04 02:26 | 49.83017 | -97.13842 | 2527 ft | 113 kts | 317° |
| 2026-05-04 02:26 | 49.83627 | -97.14678 | 2372 ft | 121 kts | 316° |
| 2026-05-04 02:26 | 49.84262 | -97.15551 | 2197 ft | 122 kts | 316° |
| 2026-05-04 02:27 | 49.84888 | -97.16412 | 2030 ft | 120 kts | 316° |
| 2026-05-04 02:27 | 49.85518 | -97.17269 | 1881 ft | 124 kts | 317° |
| 2026-05-04 02:27 | 49.86157 | -97.18149 | 1701 ft | 121 kts | 315° |
| 2026-05-04 02:27 | 49.86805 | -97.19052 | 1544 ft | 129 kts | 316° |
| 2026-05-04 02:28 | 49.87499 | -97.19994 | 1375 ft | 131 kts | 317° |
| 2026-05-04 02:28 | 49.88166 | -97.20924 | 1166 ft | 126 kts | 316° |
| 2026-05-04 02:28 | 49.88804 | -97.21821 | 1021 ft | 122 kts | 320° |
| 2026-05-04 02:28 | 49.89430 | -97.22674 | 845 ft | 120 kts | 320° |
| 2026-05-04 02:29 | 49.90031 | -97.23491 | 788 ft | 103 kts | 319° |
| 2026-05-04 02:29 | 49.90454 | -97.24071 | 784 ft | 54 kts | 318° |
| 2026-05-04 02:29 | 49.90658 | -97.24338 | 787 ft | 18 kts | 335° |
| 2026-05-04 02:29 | 49.90737 | -97.24284 | 787 ft | 13 kts | 70° |
| 2026-05-04 02:30 | 49.90760 | -97.24147 | 789 ft | 13 kts | 78° |
| 2026-05-04 02:30 | 49.90780 | -97.24014 | 789 ft | 13 kts | 75° |
| 2026-05-04 02:30 | 49.90793 | -97.23870 | 786 ft | 14 kts | 82° |
| 2026-05-04 02:30 | 49.90813 | -97.23715 | 783 ft | 15 kts | 77° |
| 2026-05-04 02:31 | 49.90833 | -97.23546 | 780 ft | 16 kts | 79° |
| 2026-05-04 02:31 | 49.90856 | -97.23374 | 781 ft | 16 kts | 78° |
| 2026-05-04 02:31 | 49.90873 | -97.23209 | 781 ft | 15 kts | 85° |
| 2026-05-04 02:31 | 49.90880 | -97.23048 | 781 ft | 15 kts | 85° |
| 2026-05-04 02:32 | 49.90886 | -97.22894 | 782 ft | 14 kts | 96° |
| 2026-05-04 02:32 | 49.90846 | -97.22762 | 783 ft | 13 kts | 123° |
| 2026-05-04 02:32 | 49.90801 | -97.22679 | 783 ft | 4 kts | 141° |
| 2026-05-04 02:32 | 49.90774 | -97.22668 | 782 ft | 4 kts | 185° |
| 2026-05-04 02:33 | 49.90749 | -97.22698 | 782 ft | 5 kts | 238° |
| 2026-05-04 02:33 | 49.90736 | -97.22718 | 782 ft | 1 kts | 210° |
| 2026-05-04 02:33 | 49.90730 | -97.22717 | 782 ft | 1 kts | 176° |
| 2026-05-04 02:33 | 49.90725 | -97.22711 | 782 ft | 1 kts | 144° |
| 2026-05-04 02:34 | 49.90712 | -97.22699 | 782 ft | 3 kts | 152° |
| 2026-05-04 02:34 | 49.90699 | -97.22691 | 782 ft | 0 kts | 162° |
| 2026-05-04 02:34 | 49.90697 | -97.22690 | 782 ft | 1 kts | 161° |
| 2026-05-04 02:34 | 49.90687 | -97.22684 | 782 ft | 1 kts | 162° |
| 2026-05-04 02:35 | 49.90677 | -97.22680 | 782 ft | 1 kts | 163° |
| 2026-05-04 02:35 | 49.90667 | -97.22675 | 782 ft | 1 kts | 163° |
| 2026-05-04 02:35 | 49.90664 | -97.22674 | 782 ft | 0 kts | 163° |